Time;durP1;ratioP1;P1;durP2;ratioP2;P2;SDS_P1;SDS_P2;PMS_P1;PMS_P2;Temp;Humidity;BMP_temperature;BMP_pressure;BME280_temperature;BME280_humidity;BME280_pressure;Samples;Min_cycle;Max_cycle;Signal;HPM_P1;HPM_P2
2023/08/23 00:00:47;;;;;;;67.72;64.25;;;;;;;;;;5067484;28;20032;-66
2023/08/23 00:03:12;;;;;;;74.97;71.15;;;;;;;;;;5065371;28;21312;-64
2023/08/23 00:05:38;;;;;;;66.65;63.22;;;;;;;;;;5064795;28;20036;-64
2023/08/23 00:08:03;;;;;;;69.75;66.13;;;;;;;;;;5066091;28;20155;-66
2023/08/23 00:10:29;;;;;;;69.10;65.65;;;;;;;;;;5065608;28;20104;-66
2023/08/23 00:12:56;;;;;;;66.97;63.55;;;;;;;;;;5066081;28;20033;-66
2023/08/23 00:15:21;;;;;;;66.90;61.40;;;;;;;;;;5068424;28;20441;-66
2023/08/23 00:17:47;;;;;;;71.10;67.53;;;;;;;;;;5066286;28;20035;-66
2023/08/23 00:20:12;;;;;;;66.63;63.30;;;;;;;;;;5066705;28;20034;-63
2023/08/23 00:22:38;;;;;;;72.15;68.35;;;;;;;;;;5070485;28;20059;-64
2023/08/23 00:25:04;;;;;;;92.68;86.95;;;;;;;;;;5068434;28;20036;-63
2023/08/23 00:27:29;;;;;;;74.30;70.50;;;;;;;;;;5063661;28;20123;-67
2023/08/23 00:29:54;;;;;;;67.05;63.65;;;;;;;;;;5065394;28;20115;-67
2023/08/23 00:32:20;;;;;;;59.17;56.20;;;;;;;;;;5062976;28;20029;-63
2023/08/23 00:34:45;;;;;;;61.28;58.17;;;;;;;;;;5064404;28;20094;-67
2023/08/23 00:37:10;;;;;;;67.28;63.83;;;;;;;;;;5064234;28;20040;-63
2023/08/23 00:39:36;;;;;;;65.07;61.80;;;;;;;;;;5063669;28;20039;-64
2023/08/23 00:42:01;;;;;;;73.88;70.18;;;;;;;;;;5065688;28;20048;-63
2023/08/23 00:44:26;;;;;;;79.35;75.43;;;;;;;;;;5068084;28;20024;-66
2023/08/23 00:46:52;;;;;;;74.60;70.85;;;;;;;;;;5068252;28;20036;-67
2023/08/23 00:49:17;;;;;;;72.20;68.55;;;;;;;;;;5064170;28;20106;-67
2023/08/23 00:51:43;;;;;;;80.50;76.53;;;;;;;;;;5063947;28;20111;-63
2023/08/23 00:54:09;;;;;;;73.75;70.00;;;;;;;;;;5066050;28;20029;-63
2023/08/23 00:56:36;;;;;;;82.22;77.93;;;;;;;;;;5065651;28;20092;-63
2023/08/23 00:59:02;;;;;;;75.10;71.35;;;;;;;;;;5064671;28;20100;-64
2023/08/23 01:01:27;;;;;;;84.05;79.90;;;;;;;;;;5063657;28;20128;-67
2023/08/23 01:03:56;;;;;;;85.60;81.30;;;;;;;;;;5062475;28;20083;-64
2023/08/23 01:06:35;;;;;;;82.35;78.22;;;;;;;;;;5064871;28;20048;-67
2023/08/23 01:09:09;;;;;;;99.72;94.78;;;;;;;;;;5064215;28;20036;-67
2023/08/23 01:11:48;;;;;;;102.20;97.13;;;;;;;;;;5069506;28;20121;-67
2023/08/23 01:14:38;;;;;;;98.60;93.75;;;;;;;;;;5068471;28;20043;-67
2023/08/23 01:17:06;;;;;;;98.93;94.05;;;;;;;;;;5066243;28;20109;-67
2023/08/23 01:19:43;;;;;;;104.80;99.63;;;;;;;;;;5064524;28;20041;-64
2023/08/23 01:22:20;;;;;;;90.45;85.97;;;;;;;;;;5065521;28;20087;-64
2023/08/23 01:24:47;;;;;;;99.20;94.30;;;;;;;;;;5059419;28;20478;-63
2023/08/23 01:27:12;;;;;;;100.13;95.13;;;;;;;;;;5063659;28;20328;-63
2023/08/23 01:29:38;;;;;;;92.30;87.70;;;;;;;;;;5098407;27;20089;-63
2023/08/23 01:32:15;;;;;;;87.53;81.38;;;;;;;;;;5065127;28;20085;-64
2023/08/23 01:34:46;;;;;;;83.70;79.55;;;;;;;;;;5064976;28;20854;-66
2023/08/23 01:37:12;;;;;;;77.47;73.60;;;;;;;;;;5064528;28;20097;-66
2023/08/23 01:39:38;;;;;;;78.88;74.90;;;;;;;;;;5065752;28;20032;-66
2023/08/23 01:42:04;;;;;;;83.13;79.05;;;;;;;;;;5067521;28;20438;-63
2023/08/23 01:44:30;;;;;;;76.10;71.93;;;;;;;;;;5065862;28;20059;-63
2023/08/23 01:46:55;;;;;;;69.18;65.72;;;;;;;;;;5063702;28;20044;-63
2023/08/23 01:49:20;;;;;;;71.85;68.25;;;;;;;;;;5067952;28;20519;-63
2023/08/23 01:51:46;;;;;;;60.95;57.85;;;;;;;;;;5067143;28;20033;-63
2023/08/23 01:54:11;;;;;;;56.95;54.08;;;;;;;;;;5063858;28;20314;-63
2023/08/23 01:56:36;;;;;;;52.58;49.92;;;;;;;;;;5063181;28;20067;-64
2023/08/23 01:59:02;;;;;;;47.17;44.75;;;;;;;;;;5062704;28;20184;-63
2023/08/23 02:01:27;;;;;;;43.55;41.20;;;;;;;;;;5062111;28;20123;-63
2023/08/23 02:03:54;;;;;;;47.80;45.30;;;;;;;;;;5062006;28;20040;-63
2023/08/23 02:06:19;;;;;;;45.72;43.35;;;;;;;;;;5066891;28;20127;-63
2023/08/23 02:08:44;;;;;;;53.83;51.05;;;;;;;;;;5061792;28;20117;-63
2023/08/23 02:11:10;;;;;;;53.85;51.10;;;;;;;;;;5063943;28;20033;-63
2023/08/23 02:13:35;;;;;;;56.45;53.47;;;;;;;;;;5063359;28;20032;-64
2023/08/23 02:16:01;;;;;;;53.50;50.75;;;;;;;;;;5066803;28;20351;-63
2023/08/23 02:18:26;;;;;;;52.28;49.60;;;;;;;;;;5063996;28;20044;-63
2023/08/23 02:20:56;;;;;;;56.10;53.25;;;;;;;;;;5061810;28;20035;-63
2023/08/23 02:23:21;;;;;;;54.22;51.42;;;;;;;;;;5063959;28;20085;-63
2023/08/23 02:25:46;;;;;;;47.50;45.10;;;;;;;;;;5063864;28;20044;-63
2023/08/23 02:28:12;;;;;;;49.15;46.50;;;;;;;;;;5066579;28;20032;-64
2023/08/23 02:30:38;;;;;;;51.00;48.33;;;;;;;;;;5065215;28;20421;-63
2023/08/23 02:33:03;;;;;;;57.33;54.38;;;;;;;;;;5063810;28;20038;-63
2023/08/23 02:35:29;;;;;;;58.78;55.83;;;;;;;;;;5068735;28;20036;-63
2023/08/23 02:37:54;;;;;;;64.40;61.03;;;;;;;;;;5066964;28;20119;-63
2023/08/23 02:40:20;;;;;;;68.82;65.35;;;;;;;;;;5070537;28;20040;-63
2023/08/23 02:42:45;;;;;;;75.32;71.53;;;;;;;;;;5070045;28;20120;-63
2023/08/23 02:45:10;;;;;;;80.05;76.03;;;;;;;;;;5072305;28;20040;-63
2023/08/23 02:47:36;;;;;;;77.80;73.90;;;;;;;;;;5068061;28;20119;-63
2023/08/23 02:50:01;;;;;;;68.82;65.32;;;;;;;;;;5067913;28;20454;-62
2023/08/23 02:52:26;;;;;;;72.57;68.82;;;;;;;;;;5067213;28;20033;-63
2023/08/23 02:54:52;;;;;;;58.97;56.03;;;;;;;;;;5067718;28;20025;-63
2023/08/23 02:57:17;;;;;;;59.75;56.65;;;;;;;;;;5070802;28;20043;-63
2023/08/23 02:59:42;;;;;;;52.95;50.20;;;;;;;;;;5066087;28;20086;-63
2023/08/23 03:02:08;;;;;;;47.80;45.38;;;;;;;;;;5068872;28;20035;-63
2023/08/23 03:04:33;;;;;;;50.88;48.20;;;;;;;;;;5065915;28;20639;-63
2023/08/23 03:06:58;;;;;;;47.33;44.88;;;;;;;;;;5066187;28;20097;-63
2023/08/23 03:09:24;;;;;;;44.20;41.88;;;;;;;;;;5067655;28;20400;-63
2023/08/23 03:11:49;;;;;;;40.85;38.70;;;;;;;;;;5071522;28;20040;-63
2023/08/23 03:14:14;;;;;;;34.38;32.42;;;;;;;;;;5068392;28;20033;-63
2023/08/23 03:16:40;;;;;;;32.75;31.00;;;;;;;;;;5068768;28;20036;-66
2023/08/23 03:19:05;;;;;;;33.85;31.92;;;;;;;;;;5062953;28;20653;-67
2023/08/23 03:21:31;;;;;;;34.38;32.58;;;;;;;;;;5067666;28;20064;-65
2023/08/23 03:23:56;;;;;;;34.63;32.67;;;;;;;;;;5065845;28;20039;-66
2023/08/23 03:26:21;;;;;;;35.15;33.25;;;;;;;;;;5066551;28;20829;-66
2023/08/23 03:28:47;;;;;;;34.72;32.53;;;;;;;;;;5065741;28;20029;-65
2023/08/23 03:31:12;;;;;;;32.63;30.88;;;;;;;;;;5069150;28;20029;-65
2023/08/23 03:33:37;;;;;;;34.08;32.30;;;;;;;;;;5063869;28;20608;-65
2023/08/23 03:36:03;;;;;;;35.10;33.20;;;;;;;;;;5066097;28;20071;-65
2023/08/23 03:38:28;;;;;;;35.53;33.70;;;;;;;;;;5064660;28;20040;-65
2023/08/23 03:40:54;;;;;;;33.47;31.70;;;;;;;;;;5070522;28;20038;-66
2023/08/23 03:43:19;;;;;;;32.15;30.42;;;;;;;;;;5067635;28;20046;-65
2023/08/23 03:45:46;;;;;;;31.33;29.48;;;;;;;;;;5066096;28;20032;-66
2023/08/23 03:48:12;;;;;;;30.90;29.25;;;;;;;;;;5064873;28;20100;-65
2023/08/23 03:50:37;;;;;;;29.88;28.27;;;;;;;;;;5063678;28;20040;-66
2023/08/23 03:53:03;;;;;;;30.73;29.00;;;;;;;;;;5066888;28;20139;-65
2023/08/23 03:55:28;;;;;;;28.33;26.77;;;;;;;;;;5065688;28;20063;-65
2023/08/23 03:57:53;;;;;;;31.98;30.10;;;;;;;;;;5064795;28;20032;-65
2023/08/23 04:00:19;;;;;;;30.60;28.92;;;;;;;;;;5069734;28;20094;-66
2023/08/23 04:02:44;;;;;;;30.10;28.40;;;;;;;;;;5066280;28;20093;-66
2023/08/23 04:05:12;;;;;;;27.88;26.38;;;;;;;;;;5067029;28;20050;-66
2023/08/23 04:07:39;;;;;;;28.73;27.23;;;;;;;;;;5065218;28;20032;-66
2023/08/23 04:10:05;;;;;;;31.90;30.20;;;;;;;;;;5062974;28;20039;-65
2023/08/23 04:12:31;;;;;;;28.85;27.30;;;;;;;;;;5065167;28;20040;-66
2023/08/23 04:14:56;;;;;;;30.30;28.70;;;;;;;;;;5063390;28;20044;-66
2023/08/23 04:17:23;;;;;;;31.60;29.83;;;;;;;;;;5067431;28;20036;-65
2023/08/23 04:19:49;;;;;;;29.83;28.13;;;;;;;;;;5065748;28;20090;-66
2023/08/23 04:22:14;;;;;;;30.40;28.73;;;;;;;;;;5066953;28;20386;-66
2023/08/23 04:24:40;;;;;;;30.25;28.63;;;;;;;;;;5064037;28;20037;-66
2023/08/23 04:27:05;;;;;;;30.98;29.35;;;;;;;;;;5059553;28;20041;-67
2023/08/23 04:29:30;;;;;;;30.33;28.75;;;;;;;;;;5064354;28;20036;-66
2023/08/23 04:31:56;;;;;;;29.10;27.48;;;;;;;;;;5065375;28;20040;-66
2023/08/23 04:34:21;;;;;;;29.17;27.58;;;;;;;;;;5063941;28;20101;-66
2023/08/23 04:36:46;;;;;;;27.08;25.60;;;;;;;;;;5064186;28;20036;-67
2023/08/23 04:39:12;;;;;;;26.13;24.73;;;;;;;;;;5064177;28;20033;-66
2023/08/23 04:41:37;;;;;;;27.27;25.77;;;;;;;;;;5062977;28;20062;-66
2023/08/23 04:44:03;;;;;;;27.33;25.80;;;;;;;;;;5064467;28;20039;-66
2023/08/23 04:46:28;;;;;;;29.40;27.85;;;;;;;;;;5063152;28;20469;-66
2023/08/23 04:48:54;;;;;;;33.33;31.50;;;;;;;;;;5064372;28;20068;-65
2023/08/23 04:51:19;;;;;;;39.75;37.65;;;;;;;;;;5063548;28;20041;-66
2023/08/23 04:53:44;;;;;;;46.83;44.38;;;;;;;;;;5062728;28;20044;-66
2023/08/23 04:56:10;;;;;;;64.18;60.92;;;;;;;;;;5062743;28;20024;-66
2023/08/23 04:58:35;;;;;;;85.30;81.00;;;;;;;;;;5065294;28;20028;-67
2023/08/23 05:01:04;;;;;;;110.53;104.97;;;;;;;;;;5063759;28;20048;-67
2023/08/23 05:03:30;;;;;;;127.97;121.60;;;;;;;;;;5061255;28;20462;-66
2023/08/23 05:05:57;;;;;;;129.27;122.82;;;;;;;;;;5065777;28;20058;-67
2023/08/23 05:08:22;;;;;;;143.57;136.43;;;;;;;;;;5065535;28;20580;-65
2023/08/23 05:10:52;;;;;;;147.57;140.18;;;;;;;;;;5060155;28;20095;-65
2023/08/23 05:13:18;;;;;;;119.53;113.63;;;;;;;;;;5064491;28;20033;-66
2023/08/23 05:15:54;;;;;;;119.78;113.70;;;;;;;;;;5064303;28;20066;-66
2023/08/23 05:18:20;;;;;;;119.88;113.93;;;;;;;;;;5061880;28;20029;-65
2023/08/23 05:20:46;;;;;;;138.25;131.38;;;;;;;;;;5062228;28;20033;-65
2023/08/23 05:23:12;;;;;;;135.18;128.48;;;;;;;;;;5063669;28;20047;-66
2023/08/23 05:25:37;;;;;;;119.63;113.68;;;;;;;;;;5061925;28;20050;-65
2023/08/23 05:28:03;;;;;;;116.13;110.22;;;;;;;;;;5060295;28;20464;-64
2023/08/23 05:30:31;;;;;;;106.90;101.55;;;;;;;;;;5062982;28;20036;-64
2023/08/23 05:32:56;;;;;;;117.68;111.80;;;;;;;;;;5061207;28;20054;-64
2023/08/23 05:35:22;;;;;;;93.55;88.85;;;;;;;;;;5061728;28;20689;-64
2023/08/23 05:37:47;;;;;;;77.63;73.68;;;;;;;;;;5063572;28;20063;-64
2023/08/23 05:40:13;;;;;;;73.55;69.80;;;;;;;;;;5061540;28;20097;-64
2023/08/23 05:42:38;;;;;;;51.90;49.25;;;;;;;;;;5061579;28;20106;-64
2023/08/23 05:45:04;;;;;;;42.00;39.78;;;;;;;;;;5061209;28;20112;-64
2023/08/23 05:47:29;;;;;;;37.75;35.75;;;;;;;;;;5063964;28;20063;-64
2023/08/23 05:49:54;;;;;;;39.72;37.63;;;;;;;;;;5062803;28;20047;-65
2023/08/23 05:52:20;;;;;;;31.30;29.60;;;;;;;;;;5064439;28;20043;-65
2023/08/23 05:54:45;;;;;;;25.48;24.08;;;;;;;;;;5061148;28;20031;-65
2023/08/23 05:57:11;;;;;;;25.38;24.02;;;;;;;;;;5066196;28;20402;-66
2023/08/23 05:59:36;;;;;;;23.42;22.17;;;;;;;;;;5067134;28;20035;-65
2023/08/23 06:02:01;;;;;;;28.05;26.35;;;;;;;;;;5067572;28;20029;-66
2023/08/23 06:04:27;;;;;;;27.95;26.45;;;;;;;;;;5068680;28;20200;-64
2023/08/23 06:06:53;;;;;;;29.88;28.25;;;;;;;;;;5066683;28;20047;-64
2023/08/23 06:09:18;;;;;;;32.28;30.55;;;;;;;;;;5066739;28;20061;-64
2023/08/23 06:11:44;;;;;;;36.25;34.28;;;;;;;;;;5067625;28;20094;-65
2023/08/23 06:14:22;;;;;;;33.78;31.90;;;;;;;;;;5066245;28;20028;-64
2023/08/23 06:16:49;;;;;;;34.30;32.40;;;;;;;;;;5064058;28;20036;-64
2023/08/23 06:19:14;;;;;;;43.33;41.00;;;;;;;;;;5065732;28;20174;-65
2023/08/23 06:21:40;;;;;;;39.83;37.20;;;;;;;;;;5066075;28;20119;-64
2023/08/23 06:24:06;;;;;;;43.22;40.88;;;;;;;;;;5068891;28;20644;-64
2023/08/23 06:26:31;;;;;;;46.58;44.10;;;;;;;;;;5066020;28;20047;-66
2023/08/23 06:28:56;;;;;;;51.28;48.50;;;;;;;;;;5067635;28;20079;-65
2023/08/23 06:31:22;;;;;;;48.15;45.67;;;;;;;;;;5066581;28;20035;-65
2023/08/23 06:33:47;;;;;;;49.80;47.25;;;;;;;;;;5065102;28;20040;-65
2023/08/23 06:36:13;;;;;;;61.13;58.05;;;;;;;;;;5063812;28;20123;-66
2023/08/23 06:38:41;;;;;;;48.85;46.30;;;;;;;;;;5063485;28;20136;-65
2023/08/23 06:41:06;;;;;;;41.72;39.55;;;;;;;;;;5065860;28;20040;-65
2023/08/23 06:43:31;;;;;;;48.25;45.78;;;;;;;;;;5070409;28;20034;-65
2023/08/23 06:45:57;;;;;;;59.63;56.60;;;;;;;;;;5068767;28;20044;-67
2023/08/23 06:48:22;;;;;;;54.10;51.33;;;;;;;;;;5068313;28;20039;-67
2023/08/23 06:50:47;;;;;;;45.95;43.63;;;;;;;;;;5069146;28;20114;-68
2023/08/23 06:53:13;;;;;;;48.70;45.97;;;;;;;;;;5069826;28;20028;-66
2023/08/23 06:55:41;;;;;;;41.42;39.25;;;;;;;;;;5067109;28;20060;-66
2023/08/23 06:58:10;;;;;;;45.78;43.30;;;;;;;;;;5066055;28;20064;-66
2023/08/23 07:00:36;;;;;;;34.70;31.52;;;;;;;;;;5067128;28;20056;-66
2023/08/23 07:03:01;;;;;;;49.88;47.30;;;;;;;;;;5067485;28;20036;-66
2023/08/23 07:05:27;;;;;;;58.13;55.20;;;;;;;;;;5070805;28;20036;-67
2023/08/23 07:07:52;;;;;;;49.00;46.13;;;;;;;;;;5066028;28;20033;-66
2023/08/23 07:10:18;;;;;;;45.15;42.83;;;;;;;;;;5067587;28;20028;-66
2023/08/23 07:12:44;;;;;;;57.80;54.20;;;;;;;;;;5067466;28;20385;-67
2023/08/23 07:15:10;;;;;;;41.17;39.00;;;;;;;;;;5067685;28;20607;-66
2023/08/23 07:17:36;;;;;;;34.15;32.38;;;;;;;;;;5065769;28;20073;-66
2023/08/23 07:20:06;;;;;;;28.60;26.92;;;;;;;;;;5065981;28;20071;-66
2023/08/23 07:22:31;;;;;;;27.73;26.27;;;;;;;;;;5069134;28;20090;-66
2023/08/23 07:24:56;;;;;;;32.75;30.35;;;;;;;;;;5065078;28;20531;-65
2023/08/23 07:27:22;;;;;;;32.05;30.23;;;;;;;;;;5065621;28;20040;-67
2023/08/23 07:29:47;;;;;;;24.67;23.27;;;;;;;;;;5065998;28;20078;-65
2023/08/23 07:32:13;;;;;;;24.98;23.60;;;;;;;;;;5065912;28;20466;-65
2023/08/23 07:34:38;;;;;;;28.33;26.80;;;;;;;;;;5065107;28;20311;-65
2023/08/23 07:37:05;;;;;;;38.13;36.05;;;;;;;;;;5065509;28;20028;-64
2023/08/23 07:39:31;;;;;;;40.85;38.65;;;;;;;;;;5067829;28;20040;-68
2023/08/23 07:41:56;;;;;;;21.65;20.45;;;;;;;;;;5069193;28;20158;-65
2023/08/23 07:44:21;;;;;;;29.88;28.15;;;;;;;;;;5066325;28;20036;-66
2023/08/23 07:46:47;;;;;;;21.17;19.98;;;;;;;;;;5066796;28;20028;-65
2023/08/23 07:49:15;;;;;;;23.95;22.55;;;;;;;;;;5064760;28;20647;-66
2023/08/23 07:51:41;;;;;;;28.38;26.80;;;;;;;;;;5064505;28;20047;-64
2023/08/23 07:54:07;;;;;;;55.20;52.40;;;;;;;;;;5064199;28;20060;-65
2023/08/23 07:56:32;;;;;;;33.85;32.03;;;;;;;;;;5071156;28;20033;-65
2023/08/23 07:58:58;;;;;;;27.05;25.58;;;;;;;;;;5065074;28;20042;-65
2023/08/23 08:01:23;;;;;;;46.00;43.60;;;;;;;;;;5063899;28;20728;-65
2023/08/23 08:03:51;;;;;;;27.63;25.92;;;;;;;;;;5066908;28;20039;-65
2023/08/23 08:06:16;;;;;;;34.67;32.83;;;;;;;;;;5063868;28;20035;-64
2023/08/23 08:08:42;;;;;;;65.40;61.78;;;;;;;;;;5064445;28;20156;-64
2023/08/23 08:11:12;;;;;;;76.43;72.55;;;;;;;;;;5063208;28;20639;-64
2023/08/23 08:13:38;;;;;;;77.60;73.72;;;;;;;;;;5064452;28;20037;-65
2023/08/23 08:16:08;;;;;;;70.45;66.95;;;;;;;;;;5063278;28;20036;-64
2023/08/23 08:18:33;;;;;;;80.53;76.53;;;;;;;;;;5068444;28;20164;-65
2023/08/23 08:21:00;;;;;;;76.80;72.97;;;;;;;;;;5066548;28;20069;-65
2023/08/23 08:23:25;;;;;;;81.93;77.88;;;;;;;;;;5065280;28;20630;-65
2023/08/23 08:25:51;;;;;;;81.40;77.35;;;;;;;;;;5063656;28;20032;-65
2023/08/23 08:28:16;;;;;;;71.30;67.75;;;;;;;;;;5064661;28;20047;-65
2023/08/23 08:30:41;;;;;;;54.70;51.95;;;;;;;;;;5061879;28;20489;-65
2023/08/23 08:33:07;;;;;;;40.28;38.22;;;;;;;;;;5062547;28;20485;-65
2023/08/23 08:35:32;;;;;;;37.97;36.00;;;;;;;;;;5066188;28;20032;-65
2023/08/23 08:37:57;;;;;;;49.72;47.08;;;;;;;;;;5065146;28;20036;-65
2023/08/23 08:40:23;;;;;;;34.30;32.50;;;;;;;;;;5064614;28;20426;-65
2023/08/23 08:42:49;;;;;;;37.78;35.85;;;;;;;;;;5065769;28;20064;-65
2023/08/23 08:45:15;;;;;;;50.25;47.67;;;;;;;;;;5060430;28;20052;-61
2023/08/23 08:47:42;;;;;;;38.75;36.75;;;;;;;;;;5059475;28;20480;-61
2023/08/23 08:50:08;;;;;;;73.95;70.25;;;;;;;;;;5063385;28;20111;-62
2023/08/23 08:52:34;;;;;;;91.43;86.80;;;;;;;;;;5064743;28;20091;-64
2023/08/23 08:55:01;;;;;;;90.35;85.75;;;;;;;;;;5070925;28;20540;-62
2023/08/23 08:57:28;;;;;;;56.05;53.15;;;;;;;;;;5063218;28;20047;-62
2023/08/23 08:59:56;;;;;;;94.28;89.65;;;;;;;;;;5059237;28;20479;-62
2023/08/23 09:02:23;;;;;;;140.40;133.48;;;;;;;;;;5063439;28;20032;-65
2023/08/23 09:04:51;;;;;;;74.07;70.35;;;;;;;;;;5062790;28;21175;-64
2023/08/23 09:07:16;;;;;;;120.38;114.45;;;;;;;;;;5062890;28;20036;-63
2023/08/23 09:09:43;;;;;;;155.93;148.25;;;;;;;;;;5059644;28;20033;-63
2023/08/23 09:12:09;;;;;;;109.95;104.53;;;;;;;;;;5063670;28;20047;-63
2023/08/23 09:14:34;;;;;;;130.88;124.28;;;;;;;;;;5064089;28;20549;-63
2023/08/23 09:17:00;;;;;;;189.57;180.40;;;;;;;;;;5062851;28;20277;-61
2023/08/23 09:19:25;;;;;;;145.38;138.23;;;;;;;;;;5063218;28;20068;-61
2023/08/23 09:21:51;;;;;;;54.85;52.08;;;;;;;;;;5061685;28;20713;-61
2023/08/23 09:24:17;;;;;;;169.75;161.38;;;;;;;;;;5062220;28;20028;-61
2023/08/23 09:26:44;;;;;;;127.72;121.43;;;;;;;;;;5094863;28;20036;-61
2023/08/23 09:29:09;;;;;;;59.67;56.67;;;;;;;;;;5064454;28;21098;-61
2023/08/23 09:31:34;;;;;;;119.03;113.15;;;;;;;;;;5063328;28;20090;-61
2023/08/23 09:34:01;;;;;;;64.43;61.17;;;;;;;;;;5059007;28;20119;-61
2023/08/23 09:36:30;;;;;;;96.35;91.22;;;;;;;;;;5063990;28;20437;-63
2023/08/23 09:38:59;;;;;;;116.78;110.97;;;;;;;;;;5060655;28;20040;-61
2023/08/23 09:41:25;;;;;;;66.20;62.88;;;;;;;;;;5062645;28;20050;-61
2023/08/23 09:43:54;;;;;;;67.95;64.43;;;;;;;;;;5060820;28;20025;-62
2023/08/23 09:46:26;;;;;;;37.13;35.23;;;;;;;;;;5064067;28;20043;-62
2023/08/23 09:48:53;;;;;;;38.38;36.42;;;;;;;;;;5059787;28;20344;-62
2023/08/23 09:51:22;;;;;;;46.15;43.80;;;;;;;;;;5063830;28;20101;-62
2023/08/23 09:53:52;;;;;;;96.73;91.73;;;;;;;;;;5059961;28;20523;-61
2023/08/23 09:56:18;;;;;;;55.22;52.42;;;;;;;;;;5061775;28;20117;-61
2023/08/23 09:58:44;;;;;;;147.38;140.10;;;;;;;;;;5063194;28;20684;-63
2023/08/23 10:01:11;;;;;;;48.65;46.17;;;;;;;;;;5066674;28;20040;-64
2023/08/23 10:03:37;;;;;;;75.72;71.75;;;;;;;;;;5070657;28;20029;-61
2023/08/23 10:06:03;;;;;;;57.33;51.83;;;;;;;;;;5066424;28;20020;-65
2023/08/23 10:08:33;;;;;;;34.38;32.58;;;;;;;;;;5059648;28;20039;-65
2023/08/23 10:10:58;;;;;;;;;;;;;;;;;;5077596;28;20054;-64
2023/08/23 10:13:24;;;;;;;56.53;53.65;;;;;;;;;;5062067;28;20053;-64
2023/08/23 10:15:52;;;;;;;40.75;38.67;;;;;;;;;;5063434;28;20036;-63
2023/08/23 10:18:19;;;;;;;42.95;40.75;;;;;;;;;;5065118;28;20116;-64
2023/08/23 10:20:44;;;;;;;36.63;34.75;;;;;;;;;;5063127;28;20048;-64
2023/08/23 10:23:15;;;;;;;35.03;33.17;;;;;;;;;;5063548;28;20029;-65
2023/08/23 10:25:45;;;;;;;32.47;30.77;;;;;;;;;;5062857;28;20070;-65
2023/08/23 10:28:16;;;;;;;30.88;29.17;;;;;;;;;;5063015;28;20049;-65
2023/08/23 10:30:46;;;;;;;18.05;16.95;;;;;;;;;;5062488;28;20055;-65
2023/08/23 10:33:13;;;;;;;17.15;16.05;;;;;;;;;;5062341;28;20040;-64
2023/08/23 10:35:42;;;;;;;15.82;14.93;;;;;;;;;;5061654;28;20506;-65
2023/08/23 10:38:08;;;;;;;31.08;29.48;;;;;;;;;;5059207;28;20063;-67
2023/08/23 10:40:36;;;;;;;17.98;16.88;;;;;;;;;;5060631;28;20036;-64
2023/08/23 10:43:12;;;;;;;16.67;15.75;;;;;;;;;;5062514;28;20052;-62
2023/08/23 10:46:17;;;;;;;18.00;17.00;;;;;;;;;;5062884;28;20882;-62
2023/08/23 10:48:44;;;;;;;17.60;16.60;;;;;;;;;;5019112;28;20049;-63
2023/08/23 10:51:10;;;;;;;19.00;17.95;;;;;;;;;;5024175;28;20445;-63
2023/08/23 10:53:35;;;;;;;23.27;21.98;;;;;;;;;;5043929;28;20044;-64
2023/08/23 10:56:04;;;;;;;30.55;28.95;;;;;;;;;;5066062;28;20103;-62
2023/08/23 10:58:31;;;;;;;18.65;17.58;;;;;;;;;;5065368;28;20025;-62
2023/08/23 11:00:56;;;;;;;28.98;27.27;;;;;;;;;;5067229;28;20528;-62
2023/08/23 11:03:24;;;;;;;29.85;28.27;;;;;;;;;;5063598;28;20043;-61
2023/08/23 11:05:49;;;;;;;18.95;17.83;;;;;;;;;;5067581;28;20336;-64
2023/08/23 11:08:15;;;;;;;28.15;26.65;;;;;;;;;;5064721;28;20139;-65
2023/08/23 11:10:42;;;;;;;30.15;28.55;;;;;;;;;;5064130;28;20075;-64
2023/08/23 11:13:07;;;;;;;21.55;20.35;;;;;;;;;;5067222;28;20472;-64
2023/08/23 11:15:33;;;;;;;20.63;19.52;;;;;;;;;;5068261;28;20062;-63
2023/08/23 11:18:00;;;;;;;31.60;29.92;;;;;;;;;;5067261;28;20039;-65
2023/08/23 11:20:26;;;;;;;32.53;30.80;;;;;;;;;;5069214;28;20168;-65
2023/08/23 11:22:51;;;;;;;42.00;38.45;;;;;;;;;;5066659;28;20478;-65
2023/08/23 11:25:16;;;;;;;22.55;21.15;;;;;;;;;;5063644;28;20528;-63
2023/08/23 11:27:42;;;;;;;24.40;23.00;;;;;;;;;;5065554;28;20096;-62
2023/08/23 11:30:08;;;;;;;33.20;31.50;;;;;;;;;;5066471;28;20024;-62
2023/08/23 11:32:35;;;;;;;20.65;19.55;;;;;;;;;;5066296;28;20032;-62
2023/08/23 11:35:01;;;;;;;20.90;19.70;;;;;;;;;;5062359;28;20076;-62
2023/08/23 11:37:28;;;;;;;22.58;21.27;;;;;;;;;;5065166;28;20080;-62
2023/08/23 11:40:07;;;;;;;20.13;19.02;;;;;;;;;;5063508;28;20044;-62
2023/08/23 11:42:34;;;;;;;27.00;25.42;;;;;;;;;;5070661;28;20479;-65
2023/08/23 11:45:02;;;;;;;21.17;19.98;;;;;;;;;;5067263;28;20066;-66
2023/08/23 11:47:27;;;;;;;18.65;17.65;;;;;;;;;;5064363;28;20059;-67
2023/08/23 11:49:53;;;;;;;16.15;15.25;;;;;;;;;;5061625;28;20060;-66
2023/08/23 11:52:19;;;;;;;20.27;19.17;;;;;;;;;;5066156;28;20090;-65
2023/08/23 11:54:45;;;;;;;22.35;21.15;;;;;;;;;;5064431;28;20040;-61
2023/08/23 11:57:14;;;;;;;26.08;24.67;;;;;;;;;;5068993;28;20037;-61
2023/08/23 11:59:39;;;;;;;34.40;32.63;;;;;;;;;;5064758;28;20107;-61
2023/08/23 12:02:07;;;;;;;32.80;31.10;;;;;;;;;;5066882;28;20864;-66
2023/08/23 12:04:32;;;;;;;29.10;27.60;;;;;;;;;;5064394;28;20146;-66
2023/08/23 12:06:58;;;;;;;29.33;27.73;;;;;;;;;;5067249;28;20545;-61
2023/08/23 12:09:25;;;;;;;35.08;33.03;;;;;;;;;;5065051;28;20041;-62
2023/08/23 12:11:52;;;;;;;35.30;33.47;;;;;;;;;;5065718;28;20473;-61
2023/08/23 12:14:18;;;;;;;28.02;26.52;;;;;;;;;;5067403;28;20048;-61
2023/08/23 12:16:43;;;;;;;27.90;26.42;;;;;;;;;;5067777;28;20733;-64
2023/08/23 12:19:09;;;;;;;34.22;32.42;;;;;;;;;;5064706;28;20033;-64
2023/08/23 12:21:34;;;;;;;36.63;34.72;;;;;;;;;;5063877;28;20071;-64
2023/08/23 12:23:59;;;;;;;36.63;34.75;;;;;;;;;;5063402;28;20033;-61
2023/08/23 12:26:25;;;;;;;62.60;59.42;;;;;;;;;;5065379;28;20485;-61
2023/08/23 12:28:51;;;;;;;37.58;35.65;;;;;;;;;;5069546;28;20739;-61
2023/08/23 12:31:16;;;;;;;45.00;42.72;;;;;;;;;;5063540;28;20043;-63
2023/08/23 12:33:45;;;;;;;39.42;37.33;;;;;;;;;;5063211;28;20093;-61
2023/08/23 12:36:11;;;;;;;40.97;38.88;;;;;;;;;;5061391;28;20037;-61
2023/08/23 12:38:36;;;;;;;45.17;42.88;;;;;;;;;;5065139;28;20044;-62
2023/08/23 12:41:02;;;;;;;65.30;62.03;;;;;;;;;;5068587;28;20747;-61
2023/08/23 12:43:31;;;;;;;49.78;47.25;;;;;;;;;;5065719;28;20042;-62
2023/08/23 12:45:56;;;;;;;40.22;38.17;;;;;;;;;;5066560;28;20033;-64
2023/08/23 12:48:27;;;;;;;44.05;41.85;;;;;;;;;;5066759;28;20039;-66
2023/08/23 12:50:53;;;;;;;42.50;40.28;;;;;;;;;;5071228;28;20045;-61
2023/08/23 12:53:18;;;;;;;42.50;40.33;;;;;;;;;;5066825;28;20037;-61
2023/08/23 12:55:43;;;;;;;70.68;67.13;;;;;;;;;;5064246;28;20115;-62
2023/08/23 12:58:11;;;;;;;44.58;42.30;;;;;;;;;;5063291;28;20032;-61
2023/08/23 13:00:36;;;;;;;46.25;43.90;;;;;;;;;;5061358;28;20094;-61
2023/08/23 13:03:02;;;;;;;50.20;47.67;;;;;;;;;;5066674;28;20036;-61
2023/08/23 13:05:27;;;;;;;58.15;55.20;;;;;;;;;;5066524;28;20556;-62
2023/08/23 13:07:53;;;;;;;42.67;40.47;;;;;;;;;;5064505;28;20097;-62
2023/08/23 13:10:18;;;;;;;47.72;45.30;;;;;;;;;;5064677;28;20041;-62
2023/08/23 13:12:44;;;;;;;43.92;41.70;;;;;;;;;;5063627;28;20107;-62
2023/08/23 13:15:10;;;;;;;43.83;41.63;;;;;;;;;;5066179;28;20039;-62
2023/08/23 13:17:36;;;;;;;87.43;83.07;;;;;;;;;;5063234;28;20038;-63
2023/08/23 13:20:01;;;;;;;89.78;85.35;;;;;;;;;;5062645;28;20037;-63
2023/08/23 13:22:27;;;;;;;71.47;67.90;;;;;;;;;;5063740;28;20051;-63
2023/08/23 13:24:52;;;;;;;45.63;43.33;;;;;;;;;;5061921;28;20728;-64
2023/08/23 13:27:17;;;;;;;52.13;49.47;;;;;;;;;;5063398;28;20466;-63
2023/08/23 13:29:44;;;;;;;70.82;67.07;;;;;;;;;;5066712;28;20044;-65
2023/08/23 13:32:10;;;;;;;54.67;51.78;;;;;;;;;;5062221;28;20057;-63
2023/08/23 13:34:36;;;;;;;88.45;84.03;;;;;;;;;;5061402;28;20166;-63
2023/08/23 13:37:01;;;;;;;91.00;86.53;;;;;;;;;;5064849;28;20141;-63
2023/08/23 13:39:26;;;;;;;84.85;80.65;;;;;;;;;;5064460;28;20133;-63
2023/08/23 13:41:52;;;;;;;52.33;49.70;;;;;;;;;;5063154;28;20025;-64
2023/08/23 13:44:17;;;;;;;65.07;61.83;;;;;;;;;;5064301;28;20040;-66
2023/08/23 13:46:43;;;;;;;59.53;56.42;;;;;;;;;;5063251;28;20043;-65
2023/08/23 13:49:08;;;;;;;95.85;91.10;;;;;;;;;;5064101;28;20036;-64
2023/08/23 13:51:34;;;;;;;89.18;84.78;;;;;;;;;;5067945;28;20094;-65
2023/08/23 13:53:59;;;;;;;97.85;93.00;;;;;;;;;;5062877;28;20060;-65
2023/08/23 13:56:25;;;;;;;99.13;94.22;;;;;;;;;;5065562;28;20028;-65
2023/08/23 13:58:50;;;;;;;98.75;93.90;;;;;;;;;;5068308;28;20588;-65
2023/08/23 14:01:16;;;;;;;71.13;67.57;;;;;;;;;;5062545;28;20580;-65
2023/08/23 14:03:41;;;;;;;82.18;77.93;;;;;;;;;;5064768;28;20033;-65
2023/08/23 14:06:06;;;;;;;85.47;81.25;;;;;;;;;;5061870;28;20074;-64
2023/08/23 14:08:32;;;;;;;119.25;113.38;;;;;;;;;;5096475;28;20485;-65
2023/08/23 14:10:57;;;;;;;81.63;77.53;;;;;;;;;;5063804;28;20071;-65